createdAt,value
2022-09-01T00:01:22.123Z,58.41
2022-09-01T00:04:27.153Z,58.70
2022-09-01T00:07:32.191Z,58.63
2022-09-01T00:10:33.809Z,58.47
2022-09-01T00:13:38.246Z,58.87
2022-09-01T00:16:39.951Z,58.85
2022-09-01T00:19:41.618Z,58.98
2022-09-01T00:22:43.336Z,59.29
2022-09-01T00:25:45.209Z,59.06
2022-09-01T00:28:48.197Z,59.38
2022-09-01T00:31:52.749Z,59.19
2022-09-01T00:34:54.467Z,59.41
2022-09-01T00:37:56.518Z,59.50
2022-09-01T00:41:00.900Z,59.68
2022-09-01T00:44:05.630Z,59.59
2022-09-01T00:47:07.303Z,59.54
2022-09-01T00:50:09.697Z,59.42
2022-09-01T00:53:11.500Z,59.62
2022-09-01T00:56:13.728Z,59.55
2022-09-01T00:59:17.960Z,59.78
2022-09-01T01:02:19.581Z,59.93
2022-09-01T01:05:22.011Z,60.14
2022-09-01T01:08:34.202Z,60.51
2022-09-01T01:11:36.229Z,60.83
2022-09-01T01:14:40.174Z,60.87
2022-09-01T01:17:41.997Z,61.32
2022-09-01T01:21:02.443Z,61.53
2022-09-01T01:24:09.383Z,61.70
2022-09-01T01:27:12.757Z,61.86
2022-09-01T01:30:14.833Z,62.15
2022-09-01T01:33:17.444Z,62.38
2022-09-01T01:36:31.451Z,62.82
2022-09-01T01:39:33.747Z,62.89
2022-09-01T01:42:37.942Z,63.28
2022-09-01T01:45:39.776Z,63.13
2022-09-01T01:48:43.609Z,63.11
2022-09-01T01:51:45.485Z,63.03
2022-09-01T01:54:53.924Z,63.37
2022-09-01T01:57:57.568Z,63.41
2022-09-01T02:00:59.617Z,63.57
2022-09-01T02:04:04.139Z,63.63
2022-09-01T02:07:10.720Z,63.85
2022-09-01T02:10:12.625Z,64.02
2022-09-01T02:13:17.087Z,64.69
2022-09-01T02:16:22.700Z,65.02
2022-09-01T02:19:24.519Z,65.16
2022-09-01T02:22:26.172Z,65.41
2022-09-01T02:25:28.689Z,65.62
2022-09-01T02:28:33.028Z,65.81
2022-09-01T02:31:36.034Z,65.91
2022-09-01T02:34:40.034Z,66.51
2022-09-01T02:37:43.445Z,66.49
2022-09-01T02:40:47.213Z,66.74
2022-09-01T02:43:50.787Z,66.94
2022-09-01T02:46:52.378Z,67.31
2022-09-01T02:49:54.837Z,67.45
2022-09-01T02:53:01.938Z,67.74
2022-09-01T02:56:09.669Z,67.83
2022-09-01T02:59:13.253Z,68.60
2022-09-01T03:02:14.999Z,68.70
2022-09-01T03:05:16.517Z,68.64
2022-09-01T03:08:19.074Z,68.66
2022-09-01T03:11:21.145Z,68.78
2022-09-01T03:14:24.874Z,68.80
2022-09-01T03:17:26.796Z,68.70
2022-09-01T03:20:31.139Z,68.76
2022-09-01T03:23:34.074Z,68.69
2022-09-01T03:26:36.334Z,68.79
2022-09-01T03:29:39.464Z,69.12
2022-09-01T03:32:41.054Z,69.47
2022-09-01T03:35:43.538Z,70.07
2022-09-01T03:38:48.738Z,69.91
2022-09-01T03:41:50.285Z,70.14
2022-09-01T03:44:53.383Z,70.41
2022-09-01T03:47:55.409Z,70.30
2022-09-01T03:51:03.012Z,70.37
2022-09-01T03:54:05.116Z,70.22
2022-09-01T03:57:10.103Z,70.51
2022-09-01T04:00:20.506Z,70.39
2022-09-01T04:03:29.125Z,70.72
2022-09-01T04:06:32.866Z,71.08
2022-09-01T04:09:35.330Z,71.08
2022-09-01T04:12:37.534Z,71.46
2022-09-01T04:15:40.515Z,71.23
2022-09-01T04:18:42.293Z,71.53
2022-09-01T04:21:45.062Z,71.91
2022-09-01T04:24:46.865Z,71.84
2022-09-01T04:27:48.882Z,72.12
2022-09-01T04:30:55.886Z,72.11
2022-09-01T04:33:58.397Z,72.32
2022-09-01T04:37:00.153Z,72.43
2022-09-01T04:40:01.911Z,72.21
2022-09-01T04:43:03.661Z,72.40
2022-09-01T04:46:09.150Z,72.76
2022-09-01T04:49:16.321Z,72.83
2022-09-01T04:52:18.335Z,72.63
2022-09-01T04:55:20.119Z,73.11
2022-09-01T04:58:22.221Z,73.22
2022-09-01T05:01:26.541Z,73.59
2022-09-01T05:04:29.356Z,74.03
2022-09-01T05:07:35.114Z,74.53
2022-09-01T05:10:41.858Z,75.15
2022-09-01T05:13:45.214Z,75.36
2022-09-01T05:16:56.528Z,75.04
2022-09-01T05:19:58.537Z,75.39
2022-09-01T05:23:02.566Z,75.55
2022-09-01T05:26:06.393Z,75.40
2022-09-01T05:29:13.507Z,75.56
2022-09-01T05:32:16.529Z,75.70
2022-09-01T05:35:19.009Z,75.87
2022-09-01T05:38:20.755Z,75.67
2022-09-01T05:41:27.340Z,75.76
2022-09-01T05:44:29.480Z,75.50
2022-09-01T05:47:35.734Z,75.31
2022-09-01T05:50:40.755Z,75.18
2022-09-01T05:53:43.965Z,75.24
2022-09-01T05:56:46.076Z,75.01
2022-09-01T05:59:54.099Z,75.15
2022-09-01T06:02:58.774Z,75.24
2022-09-01T06:06:03.188Z,75.31
2022-09-01T06:09:10.723Z,75.16
2022-09-01T06:12:18.699Z,75.00
2022-09-01T06:15:21.201Z,74.92
2022-09-01T06:18:24.139Z,74.85
2022-09-01T06:21:26.627Z,74.77
2022-09-01T06:24:29.049Z,74.74
2022-09-01T06:27:30.723Z,74.76
2022-09-01T06:30:33.231Z,74.65
2022-09-01T06:33:36.239Z,74.31
2022-09-01T06:36:40.718Z,74.26
2022-09-01T06:39:51.805Z,74.04
2022-09-01T06:42:53.996Z,74.12
2022-09-01T06:45:55.582Z,73.86
2022-09-01T06:49:01.052Z,73.76
2022-09-01T06:52:04.109Z,73.53
2022-09-01T06:55:07.891Z,73.37
2022-09-01T06:58:14.143Z,73.39
2022-09-01T07:01:18.096Z,72.96
2022-09-01T07:04:25.345Z,72.82
2022-09-01T07:14:19.260Z,72.30
2022-09-01T07:17:23.173Z,72.61
2022-09-01T07:20:29.334Z,71.98
2022-09-01T07:23:46.292Z,71.91
2022-09-01T07:26:53.981Z,71.83
2022-09-01T07:29:57.170Z,71.67
2022-09-01T07:33:41.662Z,71.42
2022-09-01T07:36:26.993Z,71.18
2022-09-01T07:43:09.531Z,70.94
2022-09-01T07:49:52.607Z,70.43
2022-09-01T07:52:56.973Z,70.61
2022-09-01T07:55:59.484Z,70.22
2022-09-01T07:59:02.374Z,69.92
2022-09-01T08:02:06.426Z,69.94
2022-09-01T08:05:10.328Z,69.61
2022-09-01T08:08:18.970Z,69.37
2022-09-01T08:11:40.102Z,68.90
2022-09-01T08:14:46.728Z,69.00
2022-09-01T08:17:52.135Z,68.67
2022-09-01T08:20:53.957Z,68.33
2022-09-01T08:23:57.654Z,68.03
2022-09-01T08:26:59.341Z,67.74
2022-09-01T08:30:01.348Z,67.47
2022-09-01T08:33:10.793Z,67.47
2022-09-01T08:36:13.431Z,67.14
2022-09-01T08:39:17.365Z,67.06
2022-09-01T08:42:24.138Z,66.52
2022-09-01T08:45:29.856Z,66.61
2022-09-01T08:49:23.704Z,66.63
2022-09-01T08:52:00.737Z,66.33
2022-09-01T08:55:09.173Z,65.47
2022-09-01T08:58:12.268Z,65.46
2022-09-01T09:01:20.421Z,65.29
2022-09-01T09:04:29.524Z,64.87
2022-09-01T09:07:40.113Z,64.79
2022-09-01T09:10:50.435Z,64.56
2022-09-01T09:14:00.339Z,64.48
2022-09-01T09:17:02.675Z,64.21
2022-09-01T09:20:05.447Z,63.93
2022-09-01T09:23:12.187Z,63.23
2022-09-01T09:26:21.906Z,62.70
2022-09-01T09:29:24.462Z,62.78
2022-09-01T09:33:15.064Z,62.17
2022-09-01T09:36:16.555Z,61.64
2022-09-01T09:39:18.455Z,61.97
2022-09-01T09:42:21.469Z,61.88
2022-09-01T09:45:24.878Z,61.13
2022-09-01T09:48:28.894Z,60.06
2022-09-01T09:51:30.613Z,59.60
2022-09-01T09:54:33.528Z,59.47
2022-09-01T09:57:43.286Z,59.12
2022-09-01T10:01:00.141Z,58.69
2022-09-01T10:04:03.854Z,58.43
2022-09-01T10:07:23.715Z,57.94
2022-09-01T10:10:27.594Z,57.27
2022-09-01T10:13:32.992Z,56.25
2022-09-01T10:16:37.819Z,56.78
2022-09-01T10:19:42.056Z,56.87
2022-09-01T10:22:44.789Z,56.74
2022-09-01T10:25:50.412Z,55.40
2022-09-01T10:28:56.544Z,56.05
2022-09-01T10:32:28.146Z,56.00
2022-09-01T10:35:24.151Z,55.71
2022-09-01T10:38:27.057Z,55.59
2022-09-01T10:41:45.878Z,53.84
2022-09-01T10:44:58.268Z,54.19
2022-09-01T10:48:30.323Z,53.27
2022-09-01T10:51:55.225Z,53.33
2022-09-01T10:55:08.184Z,54.30
2022-09-01T11:05:32.658Z,54.16
2022-09-01T11:08:42.573Z,54.26
2022-09-01T11:12:00.108Z,52.86
2022-09-01T11:15:02.612Z,52.15
2022-09-01T11:18:10.531Z,51.40
2022-09-01T11:21:16.608Z,51.46
2022-09-01T11:24:39.443Z,50.31
2022-09-01T11:28:10.304Z,51.15
2022-09-01T11:31:20.984Z,50.02
2022-09-01T11:34:24.830Z,48.82
2022-09-01T11:37:27.820Z,48.27
2022-09-01T11:40:32.658Z,49.58
2022-09-01T11:43:36.007Z,49.19
2022-09-01T11:46:39.103Z,49.12
2022-09-01T11:49:49.133Z,49.13
2022-09-01T11:52:54.907Z,49.16
2022-09-01T11:56:13.083Z,48.36
2022-09-01T11:59:16.889Z,48.62
2022-09-01T12:02:20.271Z,48.20
2022-09-01T12:05:29.073Z,48.26
2022-09-01T12:08:34.308Z,48.18
2022-09-01T12:11:36.090Z,46.72
2022-09-01T12:15:02.061Z,46.85
2022-09-01T12:18:10.831Z,46.72
2022-09-01T12:21:21.296Z,46.13
2022-09-01T12:24:24.628Z,44.75
2022-09-01T12:27:26.295Z,44.56
2022-09-01T12:30:31.220Z,43.71
2022-09-01T12:33:33.352Z,43.94
2022-09-01T12:36:37.199Z,43.77
2022-09-01T12:39:39.904Z,43.78
2022-09-01T12:42:49.262Z,42.90
2022-09-01T12:45:53.249Z,43.08
2022-09-01T12:48:54.976Z,42.98
2022-09-01T12:52:10.970Z,42.90
2022-09-01T12:58:40.477Z,42.79
2022-09-01T13:01:48.441Z,42.19
2022-09-01T13:04:51.190Z,41.85
2022-09-01T13:07:55.202Z,41.43
2022-09-01T13:10:58.161Z,41.61
2022-09-01T13:14:00.066Z,41.96
2022-09-01T13:17:02.305Z,42.01
2022-09-01T13:20:04.187Z,42.76
2022-09-01T13:23:07.391Z,42.43
2022-09-01T13:26:10.307Z,42.34
2022-09-01T13:29:12.259Z,41.48
2022-09-01T13:32:19.618Z,42.21
2022-09-01T13:35:23.062Z,41.79
2022-09-01T13:38:26.695Z,40.90
2022-09-01T13:41:29.288Z,41.15
2022-09-01T13:44:31.195Z,40.81
2022-09-01T13:47:32.979Z,40.99
2022-09-01T13:51:14.637Z,41.21
2022-09-01T13:53:57.673Z,41.79
2022-09-01T13:56:59.231Z,41.97
2022-09-01T14:00:01.092Z,42.18
2022-09-01T14:03:04.837Z,42.38
2022-09-01T14:06:06.810Z,42.63
2022-09-01T14:09:11.147Z,42.14
2022-09-01T14:12:15.159Z,42.31
2022-09-01T14:15:20.597Z,41.79
2022-09-01T14:25:09.451Z,40.54
2022-09-01T14:28:13.769Z,40.08
2022-09-01T14:31:18.393Z,40.33
2022-09-01T14:34:20.006Z,40.45
2022-09-01T14:37:21.740Z,40.80
2022-09-01T14:40:33.936Z,41.05
2022-09-01T14:43:35.770Z,41.48
2022-09-01T14:46:39.299Z,41.72
2022-09-01T14:49:41.948Z,41.14
2022-09-01T14:52:45.132Z,40.45
2022-09-01T14:55:50.495Z,40.76
2022-09-01T14:59:00.796Z,41.47
2022-09-01T15:02:02.674Z,41.04
2022-09-01T15:05:04.689Z,41.17
2022-09-01T15:08:07.224Z,41.37
2022-09-01T15:11:11.268Z,41.29
2022-09-01T15:14:13.351Z,40.49
2022-09-01T15:17:14.948Z,39.67
2022-09-01T15:20:35.250Z,40.06
2022-09-01T15:23:36.925Z,40.52
2022-09-01T15:26:41.214Z,40.38
2022-09-01T15:29:48.135Z,40.51
2022-09-01T15:32:51.287Z,40.44
2022-09-01T15:35:53.838Z,40.69
2022-09-01T15:38:56.686Z,41.00
2022-09-01T15:41:59.897Z,41.28
2022-09-01T15:45:02.152Z,40.89
2022-09-01T15:48:03.727Z,41.08
2022-09-01T15:51:25.696Z,40.48
2022-09-01T15:54:30.574Z,41.15
2022-09-01T15:57:37.390Z,40.62
2022-09-01T16:00:40.043Z,40.82
2022-09-01T16:03:46.651Z,41.12
2022-09-01T16:06:49.506Z,40.78
2022-09-01T16:09:57.180Z,40.89
2022-09-01T16:13:01.797Z,40.85
2022-09-01T16:16:08.884Z,40.53
2022-09-01T16:19:21.241Z,40.22
2022-09-01T16:22:25.853Z,40.45
2022-09-01T16:25:29.844Z,40.34
2022-09-01T16:28:35.630Z,40.33
2022-09-01T16:31:37.281Z,40.69
2022-09-01T16:34:42.622Z,40.57
2022-09-01T16:37:48.477Z,40.75
2022-09-01T16:40:56.423Z,40.91
2022-09-01T16:44:05.476Z,41.05
2022-09-01T16:47:16.283Z,41.39
2022-09-01T16:50:23.308Z,41.46
2022-09-01T16:53:45.897Z,41.71
2022-09-01T16:56:53.168Z,41.76
2022-09-01T16:59:59.176Z,41.26
2022-09-01T17:03:08.101Z,41.56
2022-09-01T17:06:13.865Z,41.38
2022-09-01T17:09:17.954Z,41.32
2022-09-01T17:12:23.457Z,41.39
2022-09-01T17:15:41.198Z,41.37
2022-09-01T17:18:44.594Z,41.94
2022-09-01T17:21:52.915Z,41.90
2022-09-01T17:24:56.969Z,41.83
2022-09-01T17:28:01.067Z,42.09
2022-09-01T17:31:13.462Z,42.31
2022-09-01T17:34:20.529Z,42.80
2022-09-01T17:37:26.471Z,42.97
2022-09-01T17:40:44.666Z,43.47
2022-09-01T17:43:51.085Z,43.69
2022-09-01T17:47:00.020Z,43.68
2022-09-01T17:50:07.687Z,43.63
2022-09-01T17:53:13.262Z,43.88
2022-09-01T17:56:25.115Z,43.79
2022-09-01T17:59:30.251Z,44.06
2022-09-01T18:02:46.877Z,44.09
2022-09-01T18:05:53.856Z,44.42
2022-09-01T18:08:58.285Z,44.64
2022-09-01T18:12:01.266Z,44.92
2022-09-01T18:15:05.258Z,45.24
2022-09-01T18:18:10.358Z,45.44
2022-09-01T18:21:14.944Z,45.75
2022-09-01T18:24:18.384Z,45.98
2022-09-01T18:27:20.837Z,45.97
2022-09-01T18:30:51.594Z,46.36
2022-09-01T18:33:55.118Z,46.71
2022-09-01T18:37:03.008Z,47.00
2022-09-01T18:40:11.102Z,47.02
2022-09-01T18:43:17.585Z,46.88
2022-09-01T18:46:24.053Z,46.42
2022-09-01T18:49:30.302Z,46.68
2022-09-01T18:52:48.759Z,46.89
2022-09-01T18:55:54.821Z,47.02
2022-09-01T18:59:04.610Z,47.09
2022-09-01T19:02:12.345Z,47.43
2022-09-01T19:05:19.830Z,47.92
2022-09-01T19:08:27.656Z,48.22
2022-09-01T19:11:40.202Z,48.11
2022-09-01T19:14:51.836Z,48.24
2022-09-01T19:18:04.216Z,48.29
2022-09-01T19:21:14.614Z,48.37
2022-09-01T19:24:21.162Z,48.07
2022-09-01T19:27:24.686Z,47.58
2022-09-01T19:30:26.351Z,47.58
2022-09-01T19:33:30.664Z,47.68
2022-09-01T19:36:40.081Z,47.51
2022-09-01T19:39:44.964Z,47.43
2022-09-01T19:42:51.298Z,47.40
2022-09-01T19:45:59.310Z,47.14
2022-09-01T19:49:04.752Z,47.17
2022-09-01T19:52:10.906Z,47.40
2022-09-01T19:55:31.993Z,47.55
2022-09-01T19:58:38.350Z,47.67
2022-09-01T20:01:43.605Z,47.66
2022-09-01T20:04:48.977Z,47.81
2022-09-01T20:07:59.584Z,47.89
2022-09-01T20:11:06.356Z,48.06
2022-09-01T20:14:17.606Z,48.18
2022-09-01T20:17:22.323Z,48.43
2022-09-01T20:20:25.845Z,48.68
2022-09-01T20:23:28.591Z,48.74
2022-09-01T20:26:34.655Z,49.14
2022-09-01T20:29:41.131Z,49.16
2022-09-01T20:32:46.187Z,49.38
2022-09-01T20:35:50.617Z,49.49
2022-09-01T20:39:13.309Z,49.68
2022-09-01T20:42:20.098Z,49.94
2022-09-01T20:45:22.636Z,50.14
2022-09-01T20:48:25.388Z,50.42
2022-09-01T20:51:32.835Z,50.52
2022-09-01T20:54:39.385Z,50.64
2022-09-01T20:57:46.351Z,50.52
2022-09-01T21:00:50.670Z,50.47
2022-09-01T21:04:06.036Z,50.29
2022-09-01T21:07:09.928Z,50.09
2022-09-01T21:10:17.741Z,50.39
2022-09-01T21:13:26.436Z,50.45
2022-09-01T21:16:33.504Z,50.63
2022-09-01T21:19:39.987Z,51.23
2022-09-01T21:22:41.825Z,51.49
2022-09-01T21:25:44.475Z,51.83
2022-09-01T21:28:51.668Z,51.68
2022-09-01T21:31:55.931Z,52.17
2022-09-01T21:34:58.283Z,52.38
2022-09-01T21:37:59.872Z,52.55
2022-09-01T21:41:01.917Z,52.23
2022-09-01T21:44:04.839Z,52.40
2022-09-01T21:47:06.705Z,52.61
2022-09-01T21:50:08.912Z,52.24
2022-09-01T21:53:10.820Z,52.46
2022-09-01T21:56:15.630Z,52.33
2022-09-01T21:59:18.764Z,52.39
2022-09-01T22:02:20.717Z,52.32
2022-09-01T22:05:26.347Z,52.20
2022-09-01T22:08:28.395Z,52.13
2022-09-01T22:11:32.929Z,52.42
2022-09-01T22:14:37.297Z,52.56
2022-09-01T22:17:49.001Z,52.47
2022-09-01T22:21:01.039Z,52.67
2022-09-01T22:24:03.049Z,52.73
2022-09-01T22:27:04.608Z,52.89
2022-09-01T22:30:09.117Z,53.21
2022-09-01T22:33:13.341Z,53.13
2022-09-01T22:36:19.215Z,52.97
2022-09-01T22:39:22.339Z,53.20
2022-09-01T22:42:26.805Z,53.12
2022-09-01T22:45:30.253Z,53.11
2022-09-01T22:48:31.772Z,53.26
2022-09-01T22:51:33.876Z,53.49
2022-09-01T22:54:35.676Z,53.57
2022-09-01T22:57:37.856Z,53.69
2022-09-01T23:00:44.036Z,53.78
2022-09-01T23:03:45.784Z,53.91
2022-09-01T23:06:49.824Z,53.92
2022-09-01T23:09:51.583Z,54.25
2022-09-01T23:12:54.107Z,54.20
2022-09-01T23:15:58.493Z,54.42
2022-09-01T23:19:00.399Z,54.86
2022-09-01T23:22:03.263Z,54.60
2022-09-01T23:25:06.962Z,54.68
2022-09-01T23:28:10.046Z,55.02
2022-09-01T23:31:14.676Z,54.78
2022-09-01T23:34:16.177Z,54.82
2022-09-01T23:37:17.605Z,54.94
2022-09-01T23:40:19.444Z,55.06
2022-09-01T23:43:23.396Z,55.22
2022-09-01T23:46:27.409Z,55.01
2022-09-01T23:49:29.207Z,55.19
2022-09-01T23:52:31.179Z,55.48
2022-09-01T23:55:32.954Z,55.44
2022-09-01T23:58:34.537Z,55.63
